CheckWX is a tool to help pilots better visualize weather data.  It is not intended as a substitute for an official pre-flight weather briefing.

15:17:36 UTC

KIDA METAR
Idaho Falls Regional Airport
Idaho Falls, Idaho, USA
Current

25 mins ago

KIDA 261453Z 05005KT 10SM SCT110 12/06 A2987 RMK AO2 SLP096 T01220061 50000
Observed
May-26 @ 14:53 UTC
Wind
  • 050° at 5 KTS
Visibility
10 SM
Flight Rules
VFR
Cloud Levels
  • Scattered at 11,000' AGL
Temperature
12°C / 54°F
Dewpoint
C / 43°F
Humidity
67%
Altimeter
29.87" Hg
Pressure
1011.52 hPa
Previous

1 hour ago

KIDA 261353Z 36004KT 10SM SCT150 10/07 A2987 RMK AO2 SLP101 T01000072
Observed
May-26 @ 13:53 UTC
Wind
  • 360° at 4 KTS
Visibility
10 SM
Flight Rules
VFR
Cloud Levels
  • Scattered at 15,000' AGL
Temperature
10°C / 50°F
Dewpoint
C / 45°F
Humidity
82%
Altimeter
29.87" Hg
Pressure
1011.52 hPa
Previous

2 hours ago

KIDA 261253Z AUTO 00000KT 10SM CLR 08/06 A2987 RMK AO2 SLP104 T00780056
Observed
May-26 @ 12:53 UTC
Visibility
10 SM
Flight Rules
VFR
Cloud Levels
  • Clear skies
Temperature
C / 46°F
Dewpoint
C / 43°F
Humidity
87%
Altimeter
29.87" Hg
Pressure
1011.52 hPa